createdAt,value
2022-10-28T00:01:17.461Z,98572.40
2022-10-28T00:03:51.028Z,98566.60
2022-10-28T00:06:23.257Z,98572.40
2022-10-28T00:08:50.762Z,98578.00
2022-10-28T00:11:24.011Z,98574.00
2022-10-28T00:13:55.180Z,98573.60
2022-10-28T00:16:26.138Z,98571.40
2022-10-28T00:18:54.328Z,98569.80
2022-10-28T00:21:25.541Z,98569.80
2022-10-28T00:23:52.558Z,98571.80
2022-10-28T00:26:23.102Z,98573.80
2022-10-28T00:29:12.597Z,98568.60
2022-10-28T00:31:40.753Z,98569.40
2022-10-28T00:34:12.425Z,98567.00
2022-10-28T00:36:43.071Z,98564.60
2022-10-28T00:39:23.216Z,98561.80
2022-10-28T00:41:54.723Z,98569.60
2022-10-28T00:44:43.493Z,98565.20
2022-10-28T00:47:37.918Z,98565.20
2022-10-28T00:50:31.059Z,98562.60
2022-10-28T00:53:25.220Z,98563.00
2022-10-28T00:55:52.996Z,98559.80
2022-10-28T00:58:24.232Z,98560.20
2022-10-28T01:00:51.078Z,98556.40
2022-10-28T01:03:18.335Z,98551.60
2022-10-28T01:05:49.209Z,98545.80
2022-10-28T01:08:17.399Z,98551.00
2022-10-28T01:11:15.009Z,98542.00
2022-10-28T01:14:00.382Z,98540.20
2022-10-28T01:16:46.015Z,98543.20
2022-10-28T01:20:09.486Z,98549.80
2022-10-28T01:22:50.608Z,98553.20
2022-10-28T01:26:00.107Z,98554.20
2022-10-28T01:28:48.247Z,98553.20
2022-10-28T01:31:24.008Z,98562.20
2022-10-28T01:34:20.181Z,98563.00
2022-10-28T01:37:01.959Z,98559.60
2022-10-28T01:39:40.461Z,98557.00
2022-10-28T01:42:28.221Z,98560.00
2022-10-28T01:45:16.347Z,98558.60
2022-10-28T01:48:12.850Z,98563.40
2022-10-28T01:51:07.978Z,98560.00
2022-10-28T01:53:42.922Z,98561.40
2022-10-28T01:56:16.676Z,98551.00
2022-10-28T01:58:45.365Z,98547.80
2022-10-28T02:01:13.583Z,98550.20
2022-10-28T02:03:40.753Z,98555.00
2022-10-28T02:06:19.676Z,98551.40
2022-10-28T02:09:43.771Z,98555.20
2022-10-28T02:12:27.126Z,98554.60
2022-10-28T02:15:31.846Z,98555.00
2022-10-28T02:18:37.062Z,98556.80
2022-10-28T02:21:17.523Z,98555.00
2022-10-28T02:23:55.410Z,98554.00
2022-10-28T02:26:41.950Z,98554.20
2022-10-28T02:29:28.047Z,98553.80
2022-10-28T02:32:11.845Z,98555.00
2022-10-28T02:34:45.578Z,98560.40
2022-10-28T02:37:22.632Z,98551.80
2022-10-28T02:39:55.254Z,98550.20
2022-10-28T02:42:28.663Z,98548.00
2022-10-28T02:45:01.696Z,98544.00
2022-10-28T02:47:36.540Z,98541.00
2022-10-28T02:50:12.015Z,98537.00
2022-10-28T02:52:44.955Z,98538.40
2022-10-28T02:55:11.962Z,98535.40
2022-10-28T02:57:48.467Z,98530.40
2022-10-28T03:00:21.255Z,98533.00
2022-10-28T03:02:48.129Z,98528.20
2022-10-28T03:05:15.143Z,98528.60
2022-10-28T03:07:41.997Z,98527.00
2022-10-28T03:10:09.862Z,98530.80
2022-10-28T03:12:36.630Z,98523.00
2022-10-28T03:15:04.565Z,98521.80
2022-10-28T03:17:31.518Z,98527.60
2022-10-28T03:19:58.408Z,98524.40
2022-10-28T03:22:25.158Z,98519.60
2022-10-28T03:24:52.247Z,98512.60
2022-10-28T03:27:19.294Z,98505.60
2022-10-28T03:29:46.354Z,98510.80
2022-10-28T03:32:13.899Z,98514.40
2022-10-28T03:34:41.357Z,98517.40
2022-10-28T03:37:08.199Z,98516.60
2022-10-28T03:39:35.144Z,98517.00
2022-10-28T03:42:01.902Z,98520.80
2022-10-28T03:44:28.727Z,98516.40
2022-10-28T03:46:55.510Z,98518.40
2022-10-28T03:49:22.320Z,98518.00
2022-10-28T03:51:49.959Z,98522.60
2022-10-28T03:54:16.797Z,98528.40
2022-10-28T03:56:43.614Z,98535.40
2022-10-28T03:59:10.510Z,98532.80
2022-10-28T04:01:37.399Z,98530.00
2022-10-28T04:04:04.684Z,98530.60
2022-10-28T04:06:31.459Z,98537.00
2022-10-28T04:08:58.319Z,98543.60
2022-10-28T04:11:25.205Z,98541.00
2022-10-28T04:13:52.061Z,98532.20
2022-10-28T04:16:18.862Z,98530.00
2022-10-28T04:18:45.843Z,98528.80
2022-10-28T04:21:12.598Z,98539.40
2022-10-28T04:23:39.407Z,98545.40
2022-10-28T04:26:06.580Z,98549.60
2022-10-28T04:28:33.369Z,98545.00
2022-10-28T04:31:02.314Z,98545.40
2022-10-28T04:33:29.430Z,98559.60
2022-10-28T04:35:56.164Z,98569.60
2022-10-28T04:40:51.754Z,98566.80
2022-10-28T04:43:18.778Z,98567.20
2022-10-28T04:45:47.565Z,98570.60
2022-10-28T04:48:14.508Z,98574.40
2022-10-28T04:50:41.748Z,98564.80
2022-10-28T04:53:12.989Z,98568.00
2022-10-28T04:55:39.801Z,98563.40
2022-10-28T04:58:06.898Z,98563.80
2022-10-28T05:00:33.737Z,98559.60
2022-10-28T05:03:04.909Z,98559.20
2022-10-28T05:05:31.945Z,98552.00
2022-10-28T05:07:58.801Z,98550.60
2022-10-28T05:10:26.021Z,98557.80
2022-10-28T05:12:52.863Z,98553.60
2022-10-28T05:15:20.013Z,98553.00
2022-10-28T05:17:47.515Z,98553.40
2022-10-28T05:20:17.761Z,98548.40
2022-10-28T05:22:53.918Z,98539.60
2022-10-28T05:25:22.452Z,98541.00
2022-10-28T05:27:49.783Z,98545.80
2022-10-28T05:30:17.256Z,98547.80
2022-10-28T05:32:44.400Z,98553.00
2022-10-28T05:35:11.546Z,98552.80
2022-10-28T05:37:38.596Z,98549.20
2022-10-28T05:40:06.872Z,98556.80
2022-10-28T05:42:33.605Z,98562.40
2022-10-28T05:45:00.449Z,98554.60
2022-10-28T05:47:27.397Z,98559.60
2022-10-28T05:49:54.339Z,98566.00
2022-10-28T05:52:21.181Z,98565.60
2022-10-28T05:54:48.028Z,98563.20
2022-10-28T05:57:14.831Z,98567.40
2022-10-28T05:59:41.812Z,98566.80
2022-10-28T06:02:15.142Z,98563.00
2022-10-28T06:04:42.403Z,98559.20
2022-10-28T06:07:09.610Z,98551.40
2022-10-28T06:09:36.861Z,98553.60
2022-10-28T06:12:03.395Z,98558.60
2022-10-28T06:14:30.745Z,98567.40
2022-10-28T06:16:57.701Z,98572.00
2022-10-28T06:19:24.531Z,98575.80
2022-10-28T06:21:51.402Z,98572.40
2022-10-28T06:24:18.335Z,98574.20
2022-10-28T06:26:45.282Z,98572.00
2022-10-28T06:29:12.147Z,98570.20
2022-10-28T06:31:42.611Z,98564.60
2022-10-28T06:34:10.218Z,98566.00
2022-10-28T06:36:38.312Z,98570.40
2022-10-28T06:39:05.756Z,98568.20
2022-10-28T06:41:33.319Z,98565.20
2022-10-28T06:44:00.795Z,98563.60
2022-10-28T06:46:28.024Z,98563.00
2022-10-28T06:48:57.089Z,98567.20
2022-10-28T06:51:24.456Z,98566.20
2022-10-28T06:53:52.818Z,98579.00
2022-10-28T06:56:20.090Z,98588.20
2022-10-28T06:58:52.115Z,98584.20
2022-10-28T07:01:19.791Z,98588.80
2022-10-28T07:03:48.502Z,98594.40
2022-10-28T07:06:17.187Z,98602.80
2022-10-28T07:08:44.857Z,98601.60
2022-10-28T07:11:12.622Z,98604.20
2022-10-28T07:13:41.712Z,98606.60
2022-10-28T07:16:10.113Z,98601.20
2022-10-28T07:18:36.870Z,98597.00
2022-10-28T07:21:04.304Z,98599.20
2022-10-28T07:23:32.976Z,98605.80
2022-10-28T07:26:00.228Z,98610.60
2022-10-28T07:28:28.587Z,98614.40
2022-10-28T07:30:55.496Z,98616.40
2022-10-28T07:33:22.296Z,98616.00
2022-10-28T07:35:49.174Z,98620.80
2022-10-28T07:38:16.404Z,98620.80
2022-10-28T07:40:43.361Z,98615.40
2022-10-28T07:43:10.498Z,98606.20
2022-10-28T07:45:38.671Z,98608.80
2022-10-28T07:48:06.318Z,98614.00
2022-10-28T07:50:33.172Z,98611.00
2022-10-28T07:53:00.580Z,98606.00
2022-10-28T07:55:27.776Z,98620.00
2022-10-28T07:57:54.988Z,98616.60
2022-10-28T08:00:22.408Z,98613.00
2022-10-28T08:02:49.271Z,98613.00
2022-10-28T08:05:17.576Z,98614.00
2022-10-28T08:07:44.627Z,98613.40
2022-10-28T08:10:11.418Z,98612.40
2022-10-28T08:12:38.178Z,98611.80
2022-10-28T08:15:06.006Z,98607.00
2022-10-28T08:17:32.741Z,98610.40
2022-10-28T08:19:59.524Z,98612.80
2022-10-28T08:22:26.358Z,98614.00
2022-10-28T08:24:53.206Z,98605.80
2022-10-28T08:27:19.960Z,98601.80
2022-10-28T08:29:46.795Z,98603.80
2022-10-28T08:32:13.531Z,98608.40
2022-10-28T08:34:42.671Z,98607.00
2022-10-28T08:37:11.115Z,98605.40
2022-10-28T08:39:38.029Z,98606.20
2022-10-28T08:42:35.974Z,98602.60
2022-10-28T08:45:20.394Z,98603.60
2022-10-28T08:48:11.077Z,98603.60
2022-10-28T08:50:53.313Z,98607.00
2022-10-28T08:53:28.568Z,98595.60
2022-10-28T08:56:14.621Z,98598.60
2022-10-28T08:58:44.931Z,98600.20
2022-10-28T09:01:44.642Z,98596.20
2022-10-28T09:04:22.065Z,98598.20
2022-10-28T09:06:49.016Z,98602.40
2022-10-28T09:09:22.686Z,98601.20
2022-10-28T09:12:52.529Z,98598.40
2022-10-28T09:15:55.205Z,98595.20
2022-10-28T09:18:53.611Z,98600.40
2022-10-28T09:21:33.569Z,98603.80
2022-10-28T09:24:15.910Z,98600.00
2022-10-28T09:27:02.754Z,98603.60
2022-10-28T09:30:04.924Z,98602.60
2022-10-28T09:33:02.653Z,98609.40
2022-10-28T09:35:39.977Z,98616.60
2022-10-28T09:38:29.237Z,98623.00
2022-10-28T09:41:12.081Z,98631.00
2022-10-28T09:43:49.257Z,98634.40
2022-10-28T09:46:18.870Z,98634.40
2022-10-28T09:48:56.547Z,98636.20
2022-10-28T09:51:47.906Z,98641.80
2022-10-28T09:54:14.832Z,98644.40
2022-10-28T09:56:42.272Z,98645.20
2022-10-28T09:59:15.665Z,98645.60
2022-10-28T10:01:46.625Z,98644.20
2022-10-28T10:04:23.393Z,98647.40
2022-10-28T10:07:03.533Z,98647.20
2022-10-28T10:09:34.402Z,98644.00
2022-10-28T10:12:09.029Z,98643.00
2022-10-28T10:14:58.625Z,98638.60
2022-10-28T10:17:45.056Z,98640.20
2022-10-28T10:20:16.491Z,98639.40
2022-10-28T10:22:48.062Z,98641.80
2022-10-28T10:25:20.760Z,98637.80
2022-10-28T10:28:14.614Z,98631.80
2022-10-28T10:31:01.955Z,98623.60
2022-10-28T10:33:34.619Z,98616.80
2022-10-28T10:36:15.294Z,98615.80
2022-10-28T10:38:54.457Z,98617.20
2022-10-28T10:41:34.788Z,98618.80
2022-10-28T10:44:01.962Z,98611.80
2022-10-28T10:46:28.881Z,98607.00
2022-10-28T10:49:15.618Z,98611.40
2022-10-28T10:51:54.675Z,98603.60
2022-10-28T10:54:21.483Z,98604.20
2022-10-28T10:56:48.566Z,98600.20
2022-10-28T10:59:30.321Z,98598.40
2022-10-28T11:01:59.788Z,98603.00
2022-10-28T11:04:30.340Z,98596.60
2022-10-28T11:06:58.495Z,98601.60
2022-10-28T11:09:38.516Z,98592.60
2022-10-28T11:12:35.673Z,98597.60
2022-10-28T11:15:22.111Z,98595.20
2022-10-28T11:18:20.882Z,98597.20
2022-10-28T11:21:07.392Z,98597.40
2022-10-28T11:24:19.618Z,98598.40
2022-10-28T11:27:33.457Z,98597.40
2022-10-28T11:30:01.975Z,98588.60
2022-10-28T11:33:28.855Z,98588.60
2022-10-28T11:36:14.986Z,98587.20
2022-10-28T11:39:31.495Z,98581.00
2022-10-28T11:42:31.828Z,98583.20
2022-10-28T11:45:40.208Z,98579.60
2022-10-28T11:48:41.057Z,98573.00
2022-10-28T11:51:17.130Z,98572.40
2022-10-28T11:54:11.633Z,98564.40
2022-10-28T11:56:59.150Z,98558.20
2022-10-28T12:00:03.161Z,98557.80
2022-10-28T12:03:15.613Z,98548.60
2022-10-28T12:05:56.033Z,98553.80
2022-10-28T12:09:10.493Z,98556.20
2022-10-28T12:12:13.033Z,98551.20
2022-10-28T12:14:57.117Z,98548.00
2022-10-28T12:17:31.292Z,98546.80
2022-10-28T12:20:31.474Z,98545.00
2022-10-28T12:23:05.147Z,98541.80
2022-10-28T12:25:38.697Z,98526.80
2022-10-28T12:28:41.548Z,98527.80
2022-10-28T12:31:30.199Z,98521.40
2022-10-28T12:34:04.616Z,98526.40
2022-10-28T12:37:02.370Z,98535.40
2022-10-28T12:39:38.390Z,98535.80
2022-10-28T12:42:41.533Z,98528.00
2022-10-28T12:45:15.755Z,98518.20
2022-10-28T12:47:50.578Z,98514.60
2022-10-28T12:50:32.781Z,98511.00
2022-10-28T12:53:02.286Z,98504.00
2022-10-28T12:55:37.832Z,98502.80
2022-10-28T12:58:33.145Z,98501.40
2022-10-28T13:01:12.555Z,98501.80
2022-10-28T13:03:40.665Z,98502.60
2022-10-28T13:06:28.978Z,98502.60
2022-10-28T13:09:23.187Z,98501.20
2022-10-28T13:12:30.331Z,98495.20
2022-10-28T13:15:02.893Z,98492.80
2022-10-28T13:18:05.625Z,98497.00
2022-10-28T13:21:03.989Z,98493.00
2022-10-28T13:24:00.317Z,98491.60
2022-10-28T13:26:34.412Z,98487.60
2022-10-28T13:29:07.343Z,98482.40
2022-10-28T13:31:46.665Z,98484.80
2022-10-28T13:34:17.330Z,98489.00
2022-10-28T13:36:56.569Z,98484.60
2022-10-28T13:39:33.310Z,98482.80
2022-10-28T13:42:24.012Z,98481.00
2022-10-28T13:44:56.906Z,98477.60
2022-10-28T13:47:36.190Z,98475.60
2022-10-28T13:50:09.048Z,98474.40
2022-10-28T13:52:42.085Z,98465.20
2022-10-28T13:55:44.885Z,98476.00
2022-10-28T13:58:25.470Z,98477.40
2022-10-28T14:00:54.304Z,98476.80
2022-10-28T14:03:28.729Z,98481.20
2022-10-28T14:06:01.179Z,98480.40
2022-10-28T14:08:41.172Z,98483.00
2022-10-28T14:11:32.609Z,98483.60
2022-10-28T14:14:03.645Z,98483.00
2022-10-28T14:16:34.968Z,98481.80
2022-10-28T14:19:17.029Z,98485.60
2022-10-28T14:22:01.485Z,98486.00
2022-10-28T14:24:32.123Z,98486.20
2022-10-28T14:27:15.500Z,98486.00
2022-10-28T14:30:12.310Z,98494.00
2022-10-28T14:32:42.047Z,98498.80
2022-10-28T14:35:28.826Z,98497.80
2022-10-28T14:37:55.515Z,98495.80
2022-10-28T14:40:51.106Z,98488.00
2022-10-28T14:43:26.522Z,98486.80
2022-10-28T14:46:11.736Z,98493.20
2022-10-28T14:48:47.138Z,98487.40
2022-10-28T14:51:19.564Z,98485.60
2022-10-28T14:53:47.692Z,98488.60
2022-10-28T14:56:29.310Z,98494.60
2022-10-28T14:59:20.961Z,98498.00
2022-10-28T15:02:17.964Z,98498.20
2022-10-28T15:04:48.746Z,98489.20
2022-10-28T15:07:19.379Z,98489.20
2022-10-28T15:09:53.581Z,98491.60
2022-10-28T15:12:23.995Z,98488.40
2022-10-28T15:14:55.853Z,98481.40
2022-10-28T15:17:37.236Z,98481.20
2022-10-28T15:20:22.378Z,98480.80
2022-10-28T15:22:49.665Z,98480.20
2022-10-28T15:25:20.410Z,98477.20
2022-10-28T15:27:52.290Z,98477.80
2022-10-28T15:30:26.247Z,98473.20
2022-10-28T15:32:55.587Z,98468.60
2022-10-28T15:35:38.319Z,98470.80
2022-10-28T15:38:28.366Z,98469.80
2022-10-28T15:40:56.032Z,98474.20
2022-10-28T15:43:29.988Z,98473.60
2022-10-28T15:46:15.418Z,98471.60
2022-10-28T15:48:42.868Z,98468.60
2022-10-28T15:51:15.708Z,98469.80
2022-10-28T15:53:48.432Z,98469.60
2022-10-28T15:56:15.163Z,98468.20
2022-10-28T15:58:47.505Z,98468.20
2022-10-28T16:01:39.329Z,98471.00
2022-10-28T16:04:18.604Z,98472.20
2022-10-28T16:06:47.082Z,98471.20
2022-10-28T16:09:47.849Z,98461.60
2022-10-28T16:12:24.360Z,98470.40
2022-10-28T16:14:59.486Z,98474.60
2022-10-28T16:17:35.272Z,98476.80
2022-10-28T16:20:17.142Z,98477.20
2022-10-28T16:22:47.148Z,98477.20
2022-10-28T16:25:17.296Z,98476.60
2022-10-28T16:27:44.780Z,98481.60
2022-10-28T16:30:12.572Z,98486.60
2022-10-28T16:32:44.992Z,98490.00
2022-10-28T16:35:21.870Z,98486.80
2022-10-28T16:37:54.746Z,98488.40
2022-10-28T16:43:22.913Z,98488.20
2022-10-28T16:45:52.890Z,98493.00
2022-10-28T16:48:24.271Z,98488.60
2022-10-28T16:50:55.722Z,98489.20
2022-10-28T16:53:23.841Z,98487.20
2022-10-28T16:55:51.428Z,98483.60
2022-10-28T16:58:21.824Z,98483.20
2022-10-28T17:00:51.536Z,98480.40
2022-10-28T17:03:18.346Z,98483.60
2022-10-28T17:05:45.428Z,98486.00
2022-10-28T17:08:12.681Z,98488.40
2022-10-28T17:10:43.233Z,98495.60
2022-10-28T17:13:15.217Z,98498.20
2022-10-28T17:15:44.818Z,98498.60
2022-10-28T17:18:15.156Z,98500.40
2022-10-28T17:20:42.151Z,98500.60
2022-10-28T17:23:09.196Z,98497.60
2022-10-28T17:25:36.107Z,98499.00
2022-10-28T17:28:03.254Z,98496.60
2022-10-28T17:30:31.441Z,98497.40
2022-10-28T17:32:58.417Z,98498.80
2022-10-28T17:35:25.367Z,98498.20
2022-10-28T17:37:52.597Z,98492.40
2022-10-28T17:40:19.732Z,98487.00
2022-10-28T17:42:46.598Z,98488.00
2022-10-28T17:45:17.878Z,98484.40
2022-10-28T17:47:48.383Z,98484.20
2022-10-28T17:50:15.433Z,98489.40
2022-10-28T17:52:42.229Z,98492.80
2022-10-28T17:55:09.966Z,98493.40
2022-10-28T17:57:36.734Z,98494.80
2022-10-28T18:00:04.539Z,98499.60
2022-10-28T18:02:40.382Z,98501.80
2022-10-28T18:05:08.351Z,98495.00
2022-10-28T18:07:35.296Z,98496.80
2022-10-28T18:10:02.327Z,98499.80
2022-10-28T18:12:29.167Z,98497.60
2022-10-28T18:14:56.039Z,98491.20
2022-10-28T18:17:22.802Z,98485.20
2022-10-28T18:19:49.638Z,98479.60
2022-10-28T18:22:16.484Z,98484.80
2022-10-28T18:24:43.465Z,98482.40
2022-10-28T18:27:10.233Z,98485.60
2022-10-28T18:29:37.053Z,98478.40
2022-10-28T18:32:04.740Z,98473.60
2022-10-28T18:34:32.182Z,98470.40
2022-10-28T18:36:59.071Z,98474.40
2022-10-28T18:39:25.985Z,98482.80
2022-10-28T18:41:52.829Z,98481.40
2022-10-28T18:44:21.821Z,98480.40
2022-10-28T18:46:48.807Z,98480.00
2022-10-28T18:49:15.623Z,98478.60
2022-10-28T18:51:42.461Z,98482.40
2022-10-28T18:54:09.394Z,98480.20
2022-10-28T18:56:36.233Z,98481.60
2022-10-28T18:59:05.229Z,98485.00
2022-10-28T19:01:33.528Z,98480.40
2022-10-28T19:04:05.282Z,98477.80
2022-10-28T19:06:33.736Z,98480.80
2022-10-28T19:09:04.033Z,98483.20
2022-10-28T19:11:32.900Z,98484.00
2022-10-28T19:14:03.788Z,98489.00
2022-10-28T19:16:33.813Z,98486.80
2022-10-28T19:19:04.515Z,98480.40
2022-10-28T19:21:31.937Z,98477.40
2022-10-28T19:23:59.903Z,98478.40
2022-10-28T19:26:27.886Z,98481.80
2022-10-28T19:28:54.681Z,98482.20
2022-10-28T19:31:25.701Z,98485.80
2022-10-28T19:33:54.791Z,98482.80
2022-10-28T19:36:25.372Z,98480.00
2022-10-28T19:38:54.387Z,98474.60
2022-10-28T19:41:29.906Z,98474.20
2022-10-28T19:44:02.644Z,98478.20
2022-10-28T19:46:33.413Z,98484.40
2022-10-28T19:49:05.287Z,98484.40
2022-10-28T19:51:40.139Z,98485.20
2022-10-28T19:54:13.599Z,98489.40
2022-10-28T19:56:42.816Z,98486.40
2022-10-28T19:59:09.778Z,98490.20
2022-10-28T20:01:39.750Z,98491.20
2022-10-28T20:04:08.485Z,98492.60
2022-10-28T20:06:39.212Z,98488.20
2022-10-28T20:09:07.259Z,98493.80
2022-10-28T20:11:38.184Z,98499.00
2022-10-28T20:14:11.914Z,98498.00
2022-10-28T20:16:43.001Z,98492.60
2022-10-28T20:19:10.227Z,98485.80
2022-10-28T20:21:38.395Z,98486.20
2022-10-28T20:24:07.394Z,98485.80
2022-10-28T20:26:37.184Z,98478.60
2022-10-28T20:29:06.862Z,98480.00
2022-10-28T20:31:34.209Z,98481.20
2022-10-28T20:34:04.054Z,98481.00
2022-10-28T20:36:44.384Z,98485.00
2022-10-28T20:39:22.930Z,98500.00
2022-10-28T20:41:51.423Z,98499.60
2022-10-28T20:44:18.386Z,98504.40
2022-10-28T20:46:48.003Z,98503.00
2022-10-28T20:49:15.592Z,98505.40
2022-10-28T20:51:42.599Z,98500.40
2022-10-28T20:54:09.686Z,98496.20
2022-10-28T20:56:38.799Z,98490.40
2022-10-28T20:59:05.833Z,98489.40
2022-10-28T21:01:39.051Z,98490.00
2022-10-28T21:04:10.405Z,98491.20
2022-10-28T21:06:38.558Z,98490.60
2022-10-28T21:09:06.403Z,98488.40
2022-10-28T21:11:33.189Z,98479.40
2022-10-28T21:14:01.821Z,98471.20
2022-10-28T21:16:30.254Z,98475.60
2022-10-28T21:18:59.396Z,98476.80
2022-10-28T21:21:27.082Z,98472.00
2022-10-28T21:23:54.195Z,98469.80
2022-10-28T21:26:21.166Z,98473.40
2022-10-28T21:28:53.249Z,98468.80
2022-10-28T21:31:21.920Z,98470.60
2022-10-28T21:36:22.486Z,98483.00
2022-10-28T21:38:54.013Z,98483.60
2022-10-28T21:41:22.867Z,98480.60
2022-10-28T21:43:52.473Z,98485.20
2022-10-28T21:46:21.604Z,98487.40
2022-10-28T21:48:49.089Z,98493.40
2022-10-28T21:51:17.426Z,98502.20
2022-10-28T21:53:45.653Z,98508.00
2022-10-28T21:56:18.502Z,98510.80
2022-10-28T21:58:48.408Z,98508.20
2022-10-28T22:01:20.064Z,98503.40
2022-10-28T22:03:47.724Z,98505.00
2022-10-28T22:06:15.268Z,98505.80
2022-10-28T22:08:42.939Z,98499.40
2022-10-28T22:11:17.288Z,98510.80
2022-10-28T22:13:44.717Z,98516.80
2022-10-28T22:16:15.245Z,98517.60
2022-10-28T22:18:43.113Z,98510.80
2022-10-28T22:21:35.259Z,98500.20
2022-10-28T22:24:02.298Z,98497.20
2022-10-28T22:26:32.089Z,98493.00
2022-10-28T22:28:58.958Z,98493.60
2022-10-28T22:31:31.449Z,98489.80
2022-10-28T22:33:59.325Z,98484.00
2022-10-28T22:36:29.460Z,98494.60
2022-10-28T22:38:57.175Z,98486.40
2022-10-28T22:41:30.142Z,98479.80
2022-10-28T22:44:01.035Z,98479.60
2022-10-28T22:46:31.903Z,98479.80
2022-10-28T22:48:58.984Z,98477.80
2022-10-28T22:51:26.208Z,98482.00
2022-10-28T22:53:53.176Z,98483.20
2022-10-28T22:56:25.989Z,98480.60
2022-10-28T22:58:56.492Z,98480.80
2022-10-28T23:01:25.438Z,98485.00
2022-10-28T23:03:53.912Z,98474.40
2022-10-28T23:06:24.549Z,98474.80
2022-10-28T23:08:51.840Z,98469.60
2022-10-28T23:11:21.888Z,98479.40
2022-10-28T23:13:53.953Z,98475.40
2022-10-28T23:16:22.508Z,98473.00
2022-10-28T23:18:49.450Z,98471.60
2022-10-28T23:21:20.601Z,98469.40
2022-10-28T23:23:51.309Z,98472.60
2022-10-28T23:26:21.935Z,98472.60
2022-10-28T23:28:57.032Z,98467.80
2022-10-28T23:31:24.912Z,98461.00
2022-10-28T23:33:54.593Z,98464.40
2022-10-28T23:36:22.531Z,98462.80
2022-10-28T23:38:49.225Z,98467.60
2022-10-28T23:41:18.845Z,98473.80
2022-10-28T23:43:46.980Z,98474.80
2022-10-28T23:46:13.802Z,98464.60
2022-10-28T23:48:40.744Z,98465.20
2022-10-28T23:51:07.985Z,98475.20
2022-10-28T23:53:35.345Z,98477.80
2022-10-28T23:56:02.151Z,98478.40
2022-10-28T23:58:29.031Z,98475.80
